Time;durP1;ratioP1;P1;durP2;ratioP2;P2;SDS_P1;SDS_P2;PMS_P1;PMS_P2;Temp;Humidity;BMP_temperature;BMP_pressure;BME280_temperature;BME280_humidity;BME280_pressure;Samples;Min_cycle;Max_cycle;Signal;HPM_P1;HPM_P2
2021/06/01 00:02:23;;;;;;;8.90;7.10;;;17.60;81.00;;;;;;5051764;28;20608;-64
2021/06/01 00:04:51;;;;;;;7.60;6.90;;;17.60;81.20;;;;;;5052143;28;20467;-63
2021/06/01 00:07:18;;;;;;;8.23;7.43;;;17.60;81.50;;;;;;5052026;28;20490;-63
2021/06/01 00:09:44;;;;;;;6.93;6.43;;;17.60;81.70;;;;;;5052086;28;20493;-63
2021/06/01 00:12:11;;;;;;;6.80;6.20;;;17.50;81.90;;;;;;5052285;28;20467;-64
2021/06/01 00:14:37;;;;;;;7.30;6.47;;;17.50;82.20;;;;;;5051902;28;20516;-63
2021/06/01 00:17:04;;;;;;;6.97;6.37;;;17.50;82.50;;;;;;5038809;28;20475;-63
2021/06/01 00:19:30;;;;;;;7.20;6.30;;;17.40;82.90;;;;;;5051895;28;20471;-63
2021/06/01 00:21:58;;;;;;;7.33;6.63;;;17.40;83.00;;;;;;5052240;28;20481;-63
2021/06/01 00:24:25;;;;;;;8.67;7.07;;;17.40;83.20;;;;;;5051756;28;20467;-64
2021/06/01 00:26:51;;;;;;;7.60;6.77;;;17.40;83.50;;;;;;5052074;28;20981;-63
2021/06/01 00:29:17;;;;;;;7.70;6.83;;;17.30;83.70;;;;;;5051689;28;20485;-63
2021/06/01 00:31:44;;;;;;;7.20;6.50;;;17.30;84.10;;;;;;5052004;28;20472;-64
2021/06/01 00:34:10;;;;;;;6.90;6.20;;;17.30;84.40;;;;;;5052195;28;21071;-63
2021/06/01 00:36:36;;;;;;;9.67;6.67;;;17.30;84.80;;;;;;5045439;28;20472;-63
2021/06/01 00:39:06;;;;;;;7.53;6.67;;;17.20;85.00;;;;;;5051923;28;20472;-62
2021/06/01 00:41:32;;;;;;;6.50;5.90;;;17.20;85.30;;;;;;5051757;28;20467;-63
2021/06/01 00:43:59;;;;;;;6.50;5.90;;;17.20;85.60;;;;;;5055672;28;20471;-63
2021/06/01 00:46:25;;;;;;;7.33;6.60;;;17.20;85.80;;;;;;5055121;28;20481;-63
2021/06/01 00:48:51;;;;;;;7.47;6.77;;;17.20;86.00;;;;;;5055873;28;20481;-63
2021/06/01 00:51:18;;;;;;;7.10;6.40;;;17.20;86.30;;;;;;5055568;28;20531;-61
2021/06/01 00:53:45;;;;;;;9.00;6.50;;;17.20;86.50;;;;;;5055800;28;20570;-63
2021/06/01 00:56:12;;;;;;;8.73;7.20;;;17.10;86.70;;;;;;5055306;28;20463;-63
2021/06/01 00:58:39;;;;;;;7.57;6.80;;;17.10;87.00;;;;;;5055090;28;20519;-63
2021/06/01 01:03:54;;;;;;;10.43;7.90;;;17.10;87.70;;;;;;5051593;28;20455;-63
2021/06/01 01:06:36;;;;;;;8.83;7.07;;;17.00;88.00;;;;;;5055328;28;20802;-63
2021/06/01 01:09:09;;;;;;;8.97;8.03;;;17.00;88.20;;;;;;5054860;28;21059;-63
2021/06/01 01:11:44;;;;;;;7.70;6.90;;;17.00;88.40;;;;;;5055410;28;20478;-63
2021/06/01 01:14:16;;;;;;;10.40;7.90;;;16.90;88.60;;;;;;5052034;28;20465;-63
2021/06/01 01:16:49;;;;;;;11.10;9.10;;;16.90;89.00;;;;;;5057181;28;20981;-62
2021/06/01 01:19:20;;;;;;;7.03;6.43;;;16.90;89.40;;;;;;5055688;28;20528;-63
2021/06/01 01:21:50;;;;;;;8.30;7.50;;;16.90;89.60;;;;;;5055145;28;20798;-63
2021/06/01 01:24:39;;;;;;;9.53;8.60;;;16.90;89.70;;;;;;5042118;28;20947;-63
2021/06/01 01:27:16;;;;;;;8.40;7.60;;;16.90;89.90;;;;;;5051301;28;20471;-64
2021/06/01 01:29:45;;;;;;;9.33;8.33;;;16.80;89.90;;;;;;5055000;28;20473;-64
2021/06/01 01:32:21;;;;;;;8.20;7.50;;;16.80;90.10;;;;;;5054343;28;20466;-65
2021/06/01 01:34:50;;;;;;;8.20;7.40;;;16.80;90.20;;;;;;5054921;28;20459;-64
2021/06/01 01:37:18;;;;;;;9.80;7.60;;;16.80;90.30;;;;;;5046766;28;20546;-64
2021/06/01 01:39:50;;;;;;;7.93;7.13;;;16.80;90.50;;;;;;5054690;28;20481;-63
2021/06/01 01:42:18;;;;;;;7.50;6.77;;;16.80;90.60;;;;;;5054274;28;20470;-64
2021/06/01 01:44:49;;;;;;;8.87;8.00;;;16.70;90.60;;;;;;5054727;28;20474;-64
2021/06/01 01:50:05;;;;;;;7.30;6.60;;;16.70;90.90;;;;;;5054308;28;20466;-64
2021/06/01 01:52:35;;;;;;;8.30;7.53;;;16.70;91.10;;;;;;5054519;28;20844;-64
2021/06/01 01:55:01;;;;;;;7.17;6.50;;;16.60;91.20;;;;;;5041055;28;20566;-64
2021/06/01 01:57:28;;;;;;;9.10;8.20;;;16.60;91.20;;;;;;5054272;28;20455;-64
2021/06/01 01:59:55;;;;;;;9.13;8.23;;;16.60;91.30;;;;;;5054132;28;20473;-64
2021/06/01 02:02:21;;;;;;;7.43;6.70;;;16.60;91.40;;;;;;5054161;28;20469;-64
2021/06/01 02:04:49;;;;;;;8.90;8.00;;;16.60;91.60;;;;;;5054458;28;20478;-64
2021/06/01 02:07:17;;;;;;;8.47;7.77;;;16.50;91.60;;;;;;5053696;28;20470;-64
2021/06/01 02:09:43;;;;;;;7.60;6.90;;;16.60;91.80;;;;;;5054214;28;21003;-64
2021/06/01 02:12:10;;;;;;;7.27;6.60;;;16.50;91.80;;;;;;5053633;28;20467;-64
2021/06/01 02:14:36;;;;;;;8.40;6.83;;;16.50;91.90;;;;;;5054213;28;20774;-64
2021/06/01 02:17:03;;;;;;;8.60;6.93;;;16.50;92.10;;;;;;5052412;28;20474;-64
2021/06/01 02:19:29;;;;;;;7.87;6.50;;;16.50;92.30;;;;;;5054224;28;20808;-64
2021/06/01 02:22:23;;;;;;;7.83;7.10;;;16.50;92.40;;;;;;5053570;28;20558;-64
2021/06/01 02:24:59;;;;;;;7.77;7.07;;;16.50;92.50;;;;;;5053852;28;21005;-64
2021/06/01 02:27:33;;;;;;;7.30;6.30;;;16.40;92.60;;;;;;5053321;28;20482;-63
2021/06/01 02:30:05;;;;;;;7.43;6.80;;;16.40;92.70;;;;;;5053823;28;20477;-64
2021/06/01 02:32:35;;;;;;;8.33;6.43;;;16.40;92.80;;;;;;5053447;28;20452;-64
2021/06/01 02:35:08;;;;;;;7.47;6.77;;;16.40;92.90;;;;;;5053545;28;20789;-64
2021/06/01 02:37:35;;;;;;;7.03;6.30;;;16.40;93.00;;;;;;5047912;28;20462;-64
2021/06/01 02:40:04;;;;;;;7.27;6.60;;;16.40;93.00;;;;;;5053545;28;20464;-64
2021/06/01 02:42:31;;;;;;;6.90;6.20;;;16.40;93.10;;;;;;5053146;28;20834;-63
2021/06/01 02:44:58;;;;;;;7.50;6.80;;;16.40;93.20;;;;;;5053453;28;20481;-64
2021/06/01 02:47:25;;;;;;;8.53;7.73;;;16.40;93.20;;;;;;5053007;28;20479;-64
2021/06/01 02:49:52;;;;;;;8.90;8.10;;;16.40;93.40;;;;;;5053322;28;20822;-64
2021/06/01 02:52:19;;;;;;;8.30;7.70;;;16.40;93.40;;;;;;5052839;28;20501;-64
2021/06/01 02:54:46;;;;;;;6.97;6.37;;;16.40;93.50;;;;;;5053186;28;20471;-64
2021/06/01 02:57:15;;;;;;;9.20;7.47;;;16.40;93.60;;;;;;5052756;28;20950;-64
2021/06/01 02:59:42;;;;;;;10.47;8.67;;;16.30;93.70;;;;;;5053311;28;20805;-64
2021/06/01 03:02:08;;;;;;;8.63;7.83;;;16.30;93.80;;;;;;5053181;28;20536;-63
2021/06/01 03:04:34;;;;;;;9.00;8.00;;;16.30;93.90;;;;;;5051915;28;20517;-64
2021/06/01 03:07:03;;;;;;;8.67;7.77;;;16.30;94.00;;;;;;5053256;28;20467;-64
2021/06/01 03:09:29;;;;;;;8.90;8.00;;;16.30;94.20;;;;;;5052587;28;20474;-64
2021/06/01 03:11:56;;;;;;;7.77;7.07;;;16.30;94.30;;;;;;5053160;28;20471;-64
2021/06/01 03:14:23;;;;;;;9.97;7.80;;;16.30;94.30;;;;;;5052547;28;20467;-64
2021/06/01 03:16:50;;;;;;;8.90;8.00;;;16.30;94.40;;;;;;5051383;28;20464;-64
2021/06/01 03:19:16;;;;;;;9.63;8.73;;;16.20;94.50;;;;;;5052816;28;20848;-64
2021/06/01 03:21:42;;;;;;;10.70;7.70;;;16.20;94.70;;;;;;5052987;28;20486;-63
2021/06/01 03:24:09;;;;;;;10.10;8.03;;;16.20;94.90;;;;;;5052719;28;20467;-64
2021/06/01 03:26:35;;;;;;;8.70;7.90;;;16.20;95.00;;;;;;5052414;28;20814;-64
2021/06/01 03:29:01;;;;;;;7.83;7.03;;;16.20;95.00;;;;;;5052734;28;20482;-64
2021/06/01 03:31:31;;;;;;;10.13;8.13;;;16.20;95.10;;;;;;5052383;28;20471;-64
2021/06/01 03:33:57;;;;;;;8.50;7.70;;;16.20;95.20;;;;;;5052597;28;20471;-64
2021/06/01 03:36:24;;;;;;;10.40;9.40;;;16.20;95.30;;;;;;5052420;28;20473;-64
2021/06/01 03:38:51;;;;;;;9.53;8.53;;;16.10;95.30;;;;;;5039231;28;20580;-64
2021/06/01 03:41:18;;;;;;;9.07;8.17;;;16.20;95.50;;;;;;5052273;28;20463;-64
2021/06/01 03:43:45;;;;;;;8.07;7.17;;;16.20;95.60;;;;;;5052625;28;20482;-64
2021/06/01 03:46:11;;;;;;;8.90;8.03;;;16.20;95.70;;;;;;5052511;28;20550;-64
2021/06/01 03:48:39;;;;;;;9.20;7.50;;;16.20;95.80;;;;;;5052059;28;20545;-64
2021/06/01 03:51:05;;;;;;;8.80;7.87;;;16.20;95.90;;;;;;5052545;28;20471;-64
2021/06/01 03:53:31;;;;;;;9.80;8.60;;;16.20;96.00;;;;;;5051987;28;20477;-64
2021/06/01 03:55:58;;;;;;;8.50;7.70;;;16.20;96.10;;;;;;5052227;28;20979;-64
2021/06/01 03:58:24;;;;;;;10.30;8.43;;;16.20;96.20;;;;;;5051881;28;20471;-64
2021/06/01 04:00:50;;;;;;;8.73;7.80;;;16.20;96.30;;;;;;5052388;28;20531;-64
2021/06/01 04:03:16;;;;;;;12.50;9.40;;;16.20;96.40;;;;;;5052008;28;20471;-64
2021/06/01 04:05:44;;;;;;;7.83;7.03;;;16.30;96.50;;;;;;5052283;28;20463;-64
2021/06/01 04:08:11;;;;;;;12.00;9.43;;;16.30;96.60;;;;;;5052426;28;20483;-64
2021/06/01 04:10:37;;;;;;;11.53;9.13;;;16.40;96.70;;;;;;5051855;28;20508;-64
2021/06/01 04:13:03;;;;;;;8.70;7.90;;;16.40;96.80;;;;;;5052364;28;20463;-64
2021/06/01 04:15:29;;;;;;;9.53;8.40;;;16.40;96.80;;;;;;5051674;28;20501;-63
2021/06/01 04:17:56;;;;;;;10.03;8.77;;;16.40;97.10;;;;;;5054306;28;20497;-64
2021/06/01 04:20:24;;;;;;;9.93;8.90;;;16.50;96.90;;;;;;5055671;28;20515;-63
2021/06/01 04:22:51;;;;;;;9.17;8.27;;;16.50;96.90;;;;;;5056297;28;20467;-63
2021/06/01 04:25:18;;;;;;;10.20;9.07;;;16.50;96.90;;;;;;5055629;28;20467;-63
2021/06/01 04:27:44;;;;;;;12.17;8.93;;;16.60;96.90;;;;;;5056049;28;20474;-63
2021/06/01 04:30:12;;;;;;;9.00;8.10;;;16.60;96.90;;;;;;5056263;28;20782;-63
2021/06/01 04:32:38;;;;;;;8.43;7.53;;;16.60;96.90;;;;;;5055526;28;20941;-63
2021/06/01 04:35:05;;;;;;;8.40;7.57;;;16.70;96.90;;;;;;5055867;28;20520;-63
2021/06/01 04:37:32;;;;;;;10.10;8.67;;;16.70;96.90;;;;;;5055467;28;20475;-63
2021/06/01 04:39:59;;;;;;;10.97;9.17;;;16.80;96.90;;;;;;5055809;28;20870;-63
2021/06/01 04:42:26;;;;;;;10.70;8.70;;;16.80;96.80;;;;;;5055558;28;20463;-64
2021/06/01 04:44:52;;;;;;;16.70;11.57;;;16.80;96.70;;;;;;5055779;28;20467;-63
2021/06/01 04:47:18;;;;;;;13.27;10.03;;;16.90;96.70;;;;;;5055603;28;20672;-63
2021/06/01 04:49:45;;;;;;;14.93;9.80;;;16.90;96.60;;;;;;5055472;28;20470;-63
2021/06/01 04:52:11;;;;;;;10.00;8.63;;;16.90;96.60;;;;;;5055822;28;20527;-63
2021/06/01 04:54:38;;;;;;;17.37;10.33;;;17.00;96.60;;;;;;5055103;28;20532;-63
2021/06/01 04:57:08;;;;;;;15.47;10.33;;;17.00;96.50;;;;;;5055379;28;20471;-63
2021/06/01 04:59:36;;;;;;;13.53;10.30;;;17.00;96.50;;;;;;5055127;28;20463;-63
2021/06/01 05:02:03;;;;;;;12.97;10.70;;;17.10;96.50;;;;;;5055493;28;20471;-64
2021/06/01 05:04:29;;;;;;;10.47;9.47;;;17.10;96.40;;;;;;5055061;28;20481;-63
2021/06/01 05:06:57;;;;;;;16.63;10.83;;;17.20;96.30;;;;;;5055421;28;20471;-64
2021/06/01 05:09:24;;;;;;;12.77;10.50;;;17.30;96.20;;;;;;5054689;28;20983;-64
2021/06/01 05:11:50;;;;;;;15.07;10.10;;;17.30;96.10;;;;;;5055481;28;20486;-64
2021/06/01 05:14:18;;;;;;;10.77;9.70;;;17.40;96.00;;;;;;5055275;28;20535;-62
2021/06/01 05:16:45;;;;;;;14.43;11.23;;;17.40;96.00;;;;;;5052458;28;20460;-62
2021/06/01 05:19:12;;;;;;;13.60;9.60;;;17.50;95.80;;;;;;5056015;28;20493;-63
2021/06/01 05:21:38;;;;;;;11.30;9.80;;;17.60;95.70;;;;;;5054736;28;20570;-63
2021/06/01 05:24:05;;;;;;;12.67;9.30;;;17.60;95.70;;;;;;5055239;28;20542;-63
2021/06/01 05:26:31;;;;;;;10.17;9.17;;;17.70;95.60;;;;;;5054533;28;20459;-63
2021/06/01 05:28:58;;;;;;;10.80;8.90;;;17.70;95.60;;;;;;5054367;28;20467;-63
2021/06/01 05:31:30;;;;;;;10.00;9.07;;;17.80;95.60;;;;;;5054634;28;20558;-63
2021/06/01 05:33:58;;;;;;;10.13;8.90;;;17.80;95.40;;;;;;5054888;28;20580;-63
2021/06/01 05:36:25;;;;;;;10.63;8.60;;;17.90;95.40;;;;;;5053058;28;20550;-63
2021/06/01 05:38:52;;;;;;;8.37;7.63;;;17.90;95.30;;;;;;5052804;28;20809;-62
2021/06/01 05:41:19;;;;;;;10.10;9.10;;;18.00;95.20;;;;;;5054677;28;20969;-65
2021/06/01 05:43:45;;;;;;;9.30;8.37;;;18.00;95.10;;;;;;5054269;28;20467;-63
2021/06/01 05:46:11;;;;;;;9.50;8.00;;;18.10;95.00;;;;;;5054849;28;20463;-63
2021/06/01 05:48:39;;;;;;;8.57;7.70;;;18.10;95.00;;;;;;5054080;28;20565;-62
2021/06/01 05:51:06;;;;;;;8.33;6.57;;;18.20;95.00;;;;;;5054611;28;20547;-63
2021/06/01 05:53:32;;;;;;;7.23;6.63;;;18.20;95.00;;;;;;5054180;28;20993;-63
2021/06/01 05:55:58;;;;;;;8.47;7.67;;;18.30;95.00;;;;;;5054098;28;20949;-62
2021/06/01 05:58:25;;;;;;;8.90;8.00;;;18.30;94.90;;;;;;5053931;28;20554;-63
2021/06/01 06:00:52;;;;;;;11.33;7.37;;;18.40;95.00;;;;;;5054486;28;20550;-63
2021/06/01 06:03:18;;;;;;;9.23;8.37;;;18.40;94.90;;;;;;5054295;28;20467;-63
2021/06/01 06:05:47;;;;;;;10.43;8.43;;;18.50;94.90;;;;;;5054176;28;20833;-64
2021/06/01 06:08:14;;;;;;;9.77;8.13;;;18.60;94.80;;;;;;5054221;28;20563;-64
2021/06/01 06:10:41;;;;;;;8.40;7.70;;;18.60;94.70;;;;;;5053828;28;20468;-64
2021/06/01 06:13:09;;;;;;;9.07;8.17;;;18.70;94.70;;;;;;5054172;28;20518;-62
2021/06/01 06:15:35;;;;;;;10.47;8.93;;;18.80;94.60;;;;;;5060047;28;20470;-62
2021/06/01 06:18:06;;;;;;;11.20;8.70;;;18.90;94.50;;;;;;5050659;28;20491;-62
2021/06/01 06:20:33;;;;;;;10.37;9.20;;;19.00;94.40;;;;;;5053680;28;20475;-62
2021/06/01 06:23:01;;;;;;;10.70;9.60;;;19.10;94.20;;;;;;5054051;28;20471;-63
2021/06/01 06:25:28;;;;;;;10.27;9.10;;;19.20;93.90;;;;;;5053221;28;20523;-63
2021/06/01 06:27:55;;;;;;;11.53;10.40;;;19.40;93.90;;;;;;5053887;28;20466;-62
2021/06/01 06:30:27;;;;;;;12.67;10.60;;;19.50;93.80;;;;;;5053739;28;20474;-63
2021/06/01 06:32:53;;;;;;;14.03;12.53;;;19.60;93.70;;;;;;5053410;28;21326;-62
2021/06/01 06:35:23;;;;;;;12.67;11.47;;;19.70;93.60;;;;;;5053621;28;20970;-62
2021/06/01 06:37:50;;;;;;;9.70;8.70;;;19.80;93.30;;;;;;5050077;28;20937;-62
2021/06/01 06:40:18;;;;;;;10.57;8.53;;;20.00;93.10;;;;;;5052806;28;20470;-62
2021/06/01 06:42:45;;;;;;;10.50;8.57;;;20.10;93.10;;;;;;5053227;28;20972;-63
2021/06/01 06:45:13;;;;;;;10.07;8.83;;;20.10;92.90;;;;;;5053513;28;20466;-63
2021/06/01 06:47:44;;;;;;;9.70;8.23;;;20.30;92.90;;;;;;5052772;28;20972;-63
2021/06/01 06:50:12;;;;;;;9.20;8.30;;;20.40;92.80;;;;;;5053542;28;20852;-63
2021/06/01 06:52:38;;;;;;;10.47;8.10;;;20.50;92.60;;;;;;5052960;28;20569;-63
2021/06/01 06:55:07;;;;;;;10.07;7.43;;;20.60;92.50;;;;;;5047355;28;20493;-63
2021/06/01 06:57:35;;;;;;;9.73;8.53;;;20.70;92.50;;;;;;5052881;28;20852;-64
2021/06/01 07:00:01;;;;;;;9.07;7.90;;;20.80;92.30;;;;;;5053273;28;20473;-63
2021/06/01 07:02:29;;;;;;;9.47;8.30;;;20.90;92.00;;;;;;5053085;28;20550;-63
2021/06/01 07:04:56;;;;;;;7.97;7.27;;;21.10;91.80;;;;;;5052889;28;20459;-63
2021/06/01 07:07:22;;;;;;;12.20;9.80;;;21.20;91.70;;;;;;5053245;28;20475;-62
2021/06/01 07:09:49;;;;;;;11.20;8.57;;;21.30;91.20;;;;;;5052570;28;20995;-62
2021/06/01 07:12:16;;;;;;;10.77;8.80;;;21.40;91.30;;;;;;5053310;28;20463;-63
2021/06/01 07:14:56;;;;;;;8.53;7.70;;;21.50;91.30;;;;;;5052373;28;20559;-63
2021/06/01 07:17:23;;;;;;;10.80;7.60;;;21.60;91.10;;;;;;5043821;28;20468;-63
2021/06/01 07:19:52;;;;;;;8.43;7.63;;;21.70;90.90;;;;;;5052174;28;20462;-63
2021/06/01 07:22:19;;;;;;;9.20;7.77;;;21.80;90.80;;;;;;5052923;28;20471;-64
2021/06/01 07:24:45;;;;;;;7.80;7.10;;;21.90;90.70;;;;;;5052180;28;20459;-63
2021/06/01 07:27:12;;;;;;;9.40;7.57;;;22.10;90.20;;;;;;5052600;28;20483;-63
2021/06/01 07:29:38;;;;;;;8.50;7.37;;;22.20;90.00;;;;;;5052326;28;20471;-63
2021/06/01 07:32:10;;;;;;;9.23;8.33;;;22.30;89.10;;;;;;5052682;28;20469;-63
2021/06/01 07:34:36;;;;;;;8.40;7.60;;;22.50;89.00;;;;;;5052106;28;20467;-63
2021/06/01 07:37:03;;;;;;;8.43;7.67;;;22.70;88.20;;;;;;5052233;28;20471;-63
2021/06/01 07:39:29;;;;;;;8.80;7.80;;;22.80;88.00;;;;;;5052124;28;20467;-63
2021/06/01 07:41:55;;;;;;;12.53;11.33;;;22.90;87.90;;;;;;5052446;28;20467;-64
2021/06/01 07:44:22;;;;;;;10.10;9.10;;;23.00;87.30;;;;;;5052584;28;20467;-64
2021/06/01 07:46:49;;;;;;;9.87;7.77;;;23.10;86.70;;;;;;5051847;28;20463;-62
2021/06/01 07:49:17;;;;;;;8.27;7.33;;;23.30;86.40;;;;;;5052110;28;20487;-63
2021/06/01 07:51:44;;;;;;;7.70;7.00;;;23.50;85.00;;;;;;5051899;28;20554;-62
2021/06/01 07:54:10;;;;;;;7.27;6.67;;;23.60;83.70;;;;;;5052585;28;20459;-63
2021/06/01 07:56:37;;;;;;;6.57;6.07;;;23.70;83.00;;;;;;5052055;28;21106;-62
2021/06/01 07:59:03;;;;;;;6.73;6.23;;;23.80;81.70;;;;;;5052450;28;20783;-62
2021/06/01 08:01:30;;;;;;;8.07;6.63;;;23.90;81.00;;;;;;5052545;28;20559;-63
2021/06/01 08:03:56;;;;;;;6.33;5.73;;;24.00;79.40;;;;;;5052206;28;20455;-63
2021/06/01 08:06:25;;;;;;;10.70;9.73;;;24.10;78.70;;;;;;5052493;28;20467;-63
2021/06/01 08:08:52;;;;;;;6.60;6.10;;;24.30;76.90;;;;;;5052154;28;20471;-63
2021/06/01 08:11:18;;;;;;;7.30;6.60;;;24.40;76.90;;;;;;5052387;28;20482;-63
2021/06/01 08:13:44;;;;;;;7.27;6.20;;;24.60;76.20;;;;;;5052192;28;20787;-63
2021/06/01 08:16:11;;;;;;;9.70;7.20;;;24.80;75.30;;;;;;5052370;28;20463;-63
2021/06/01 08:18:41;;;;;;;10.07;6.70;;;24.90;74.00;;;;;;5051891;28;20470;-63
2021/06/01 08:21:09;;;;;;;6.40;5.80;;;25.00;73.20;;;;;;5052266;28;20520;-63
2021/06/01 08:23:37;;;;;;;8.53;7.73;;;25.10;73.10;;;;;;5052385;28;20474;-63
2021/06/01 08:26:04;;;;;;;6.30;5.63;;;25.20;71.90;;;;;;5052003;28;20466;-63
2021/06/01 08:28:31;;;;;;;6.47;5.97;;;25.20;71.50;;;;;;5052257;28;20562;-63
2021/06/01 08:30:57;;;;;;;5.60;5.20;;;25.10;71.70;;;;;;5051884;28;20475;-63
2021/06/01 08:33:24;;;;;;;7.37;6.60;;;25.10;71.60;;;;;;5052212;28;20487;-63
2021/06/01 08:35:50;;;;;;;9.13;8.33;;;25.00;71.30;;;;;;5051873;28;20559;-63
2021/06/01 08:38:17;;;;;;;6.50;5.97;;;25.00;70.80;;;;;;5052188;28;20459;-64
2021/06/01 08:40:51;;;;;;;8.40;6.90;;;25.00;71.30;;;;;;5051716;28;20533;-63
2021/06/01 08:43:24;;;;;;;16.20;8.77;;;25.00;70.40;;;;;;5052171;28;20470;-62
2021/06/01 08:45:52;;;;;;;10.07;6.33;;;25.00;70.10;;;;;;5051825;28;20463;-63
2021/06/01 08:48:19;;;;;;;12.50;6.87;;;25.00;70.10;;;;;;5052003;28;20479;-63
2021/06/01 08:50:48;;;;;;;12.07;6.33;;;24.90;69.30;;;;;;5051743;28;20490;-63
2021/06/01 08:53:15;;;;;;;6.50;5.53;;;24.80;69.80;;;;;;5052169;28;20800;-63
2021/06/01 08:55:42;;;;;;;7.17;6.10;;;24.70;69.70;;;;;;5051469;28;20483;-62
2021/06/01 08:58:15;;;;;;;6.50;5.90;;;24.60;69.50;;;;;;5051748;28;20459;-63
2021/06/01 09:00:42;;;;;;;6.30;5.80;;;24.60;69.10;;;;;;5051719;28;20471;-62
2021/06/01 09:03:11;;;;;;;7.33;6.73;;;24.60;68.60;;;;;;5052875;28;20543;-63
2021/06/01 09:05:59;;;;;;;8.30;7.60;;;24.60;67.60;;;;;;5055585;28;20475;-62
2021/06/01 09:08:37;;;;;;;8.60;6.80;;;24.60;66.90;;;;;;5054383;28;20436;-62
2021/06/01 09:11:10;;;;;;;6.75;6.15;;;24.60;66.30;;;;;;5054234;28;20439;-63
2021/06/01 09:21:58;;;;;;;6.40;4.90;;;25.20;65.40;;;;;;5055508;28;20532;-64
2021/06/01 09:24:24;;;;;;;5.87;5.27;;;25.30;62.10;;;;;;5055300;28;20459;-63
2021/06/01 09:26:59;;;;;;;6.13;5.63;;;25.30;59.80;;;;;;5054648;28;20493;-62
2021/06/01 09:29:28;;;;;;;6.80;6.10;;;25.40;59.90;;;;;;5055177;28;20469;-62
2021/06/01 09:32:09;;;;;;;8.03;5.70;;;25.50;59.30;;;;;;5054748;28;20575;-63
2021/06/01 09:34:42;;;;;;;5.87;5.47;;;25.60;58.80;;;;;;5054986;28;20969;-63
2021/06/01 09:37:27;;;;;;;6.10;4.87;;;25.60;58.40;;;;;;5054437;28;20789;-63
2021/06/01 09:40:14;;;;;;;5.87;5.33;;;25.60;57.10;;;;;;5054627;28;20467;-63
2021/06/01 09:42:42;;;;;;;6.87;6.17;;;25.60;57.00;;;;;;5054839;28;20467;-63
2021/06/01 09:45:13;;;;;;;6.27;5.67;;;25.60;56.90;;;;;;5054456;28;20459;-63
2021/06/01 09:47:44;;;;;;;6.13;5.40;;;25.60;56.80;;;;;;5054618;28;20467;-63
2021/06/01 09:50:20;;;;;;;7.43;6.73;;;25.60;57.00;;;;;;5054359;28;20459;-63
2021/06/01 09:52:49;;;;;;;6.17;5.57;;;25.60;55.80;;;;;;5054218;28;20538;-63
2021/06/01 09:55:23;;;;;;;6.57;5.97;;;25.50;55.70;;;;;;5054610;28;20467;-63
2021/06/01 09:57:49;;;;;;;6.10;5.50;;;25.50;55.70;;;;;;5054106;28;20459;-64
2021/06/01 10:00:19;;;;;;;5.70;3.80;;;25.40;53.90;;;;;;5054537;28;20478;-64
2021/06/01 10:02:47;;;;;;;5.40;4.77;;;25.40;51.20;;;;;;5054329;28;20965;-63
2021/06/01 10:05:17;;;;;;;6.00;5.50;;;25.40;50.00;;;;;;5054095;28;20458;-63
2021/06/01 10:07:43;;;;;;;5.07;4.57;;;25.30;49.00;;;;;;5054403;28;20471;-63
2021/06/01 10:10:16;;;;;;;5.20;4.20;;;25.30;48.90;;;;;;5054061;28;20841;-63
2021/06/01 10:12:44;;;;;;;4.93;4.50;;;25.30;49.00;;;;;;5054407;28;20471;-63
2021/06/01 10:15:12;;;;;;;4.10;3.40;;;25.30;48.50;;;;;;5053731;28;20542;-63
2021/06/01 10:17:40;;;;;;;4.57;4.07;;;25.30;47.90;;;;;;5053445;28;20478;-63
2021/06/01 10:20:08;;;;;;;6.90;6.20;;;25.40;49.70;;;;;;5053436;28;20459;-63
2021/06/01 10:22:36;;;;;;;6.20;4.70;;;25.30;50.80;;;;;;5053991;28;20471;-63
2021/06/01 10:25:02;;;;;;;5.20;4.60;;;25.30;49.20;;;;;;5053647;28;20795;-63
2021/06/01 10:27:28;;;;;;;7.77;4.17;;;25.20;49.00;;;;;;5054026;28;20601;-63
2021/06/01 10:29:55;;;;;;;5.27;4.77;;;25.20;49.40;;;;;;5053474;28;20581;-62
2021/06/01 10:32:22;;;;;;;4.80;4.40;;;25.20;49.30;;;;;;5053995;28;20463;-62
2021/06/01 10:34:51;;;;;;;4.07;3.70;;;25.20;49.60;;;;;;5053954;28;20866;-63
2021/06/01 10:49:07;;;;;;;3.63;3.33;;;25.30;50.30;;;;;;5053242;28;20960;-63
2021/06/01 10:52:08;;;;;;;4.83;4.40;;;25.40;50.40;;;;;;5053134;28;20459;-62
2021/06/01 10:55:01;;;;;;;4.60;4.20;;;25.40;51.30;;;;;;5053025;28;20470;-62
2021/06/01 10:58:03;;;;;;;5.43;4.70;;;25.50;51.50;;;;;;5053026;28;20470;-63
2021/06/01 11:03:21;;;;;;;4.30;3.90;;;25.50;51.40;;;;;;5053290;28;20478;-62
2021/06/01 11:06:13;;;;;;;5.03;4.53;;;25.50;50.70;;;;;;5052772;28;21296;-62
2021/06/01 11:08:49;;;;;;;5.33;4.93;;;25.50;51.00;;;;;;5052458;28;20471;-64
2021/06/01 11:11:36;;;;;;;4.60;4.20;;;25.50;50.90;;;;;;5053128;28;20580;-63
2021/06/01 11:14:30;;;;;;;5.57;5.07;;;25.60;51.40;;;;;;5053547;28;20542;-63
2021/06/01 11:17:03;;;;;;;6.03;5.53;;;25.60;51.50;;;;;;5052350;28;20497;-63
2021/06/01 11:19:53;;;;;;;4.43;4.13;;;25.60;49.80;;;;;;5053065;28;20881;-63
2021/06/01 11:22:28;;;;;;;4.80;3.97;;;25.60;49.30;;;;;;5053144;28;20467;-63
2021/06/01 11:33:28;;;;;;;4.00;3.70;;;25.60;47.90;;;;;;5052783;28;20820;-63
2021/06/01 11:36:03;;;;;;;3.97;3.67;;;25.70;48.00;;;;;;5052330;28;20534;-63
2021/06/01 11:38:38;;;;;;;3.80;3.50;;;25.70;48.40;;;;;;5052471;28;20563;-63
2021/06/01 11:43:56;;;;;;;6.03;3.97;;;25.80;48.60;;;;;;5052268;28;20475;-64
2021/06/01 11:46:38;;;;;;;4.30;4.00;;;25.80;49.00;;;;;;5052242;28;20801;-63
2021/06/01 11:51:50;;;;;;;3.53;3.23;;;25.80;48.10;;;;;;5052332;28;20465;-63
2021/06/01 11:54:17;;;;;;;3.77;3.43;;;25.90;47.40;;;;;;5052471;28;20463;-63
2021/06/01 11:57:04;;;;;;;3.47;3.07;;;25.90;47.20;;;;;;5051773;28;20499;-61
2021/06/01 12:05:24;;;;;;;6.60;4.00;;;25.70;46.10;;;;;;5048255;28;20463;-63
2021/06/01 12:18:58;;;;;;;4.80;4.40;;;25.40;46.00;;;;;;5051884;28;20469;-64
2021/06/01 12:21:32;;;;;;;3.63;3.10;;;25.40;45.80;;;;;;5052189;28;20459;-63
2021/06/01 12:24:07;;;;;;;3.10;2.90;;;25.30;45.60;;;;;;5051718;28;20455;-62
2021/06/01 12:26:42;;;;;;;4.60;3.00;;;25.30;45.60;;;;;;5052158;28;20485;-62
2021/06/01 12:32:05;;;;;;;3.30;3.10;;;25.20;45.30;;;;;;5051719;28;20489;-63
2021/06/01 12:34:52;;;;;;;4.10;3.80;;;25.30;45.50;;;;;;5052248;28;20505;-63
2021/06/01 12:45:57;;;;;;;2.60;2.30;;;25.40;44.10;;;;;;5055986;28;20505;-64
2021/06/01 13:12:18;;;;;;;2.90;2.60;;;25.40;43.10;;;;;;5054995;28;20459;-63
2021/06/01 13:14:53;;;;;;;2.10;1.90;;;25.40;42.70;;;;;;5055412;28;20467;-63
2021/06/01 13:20:26;;;;;;;3.53;2.40;;;25.30;41.10;;;;;;5051782;28;20462;-63
2021/06/01 13:23:06;;;;;;;3.03;1.97;;;25.30;42.10;;;;;;5055184;28;20470;-62
2021/06/01 13:31:36;;;;;;;2.00;1.77;;;25.30;40.90;;;;;;5054438;28;20543;-64
2021/06/01 13:36:56;;;;;;;1.53;1.43;;;25.20;40.40;;;;;;5054735;28;20540;-62
2021/06/01 13:39:36;;;;;;;2.10;1.67;;;25.20;40.60;;;;;;5054714;28;20467;-63
2021/06/01 13:47:52;;;;;;;7.20;6.50;;;25.20;39.50;;;;;;5054560;28;20834;-62
2021/06/01 13:50:27;;;;;;;3.57;3.27;;;25.20;39.50;;;;;;5053972;28;20471;-63
2021/06/01 13:53:08;;;;;;;3.87;3.57;;;25.20;38.80;;;;;;5054584;28;20812;-63
2021/06/01 13:55:39;;;;;;;5.67;4.90;;;25.20;37.40;;;;;;5054639;28;20478;-63
2021/06/01 14:00:57;;;;;;;5.17;4.67;;;25.20;36.70;;;;;;5052812;28;20945;-63
2021/06/01 14:31:39;;;;;;;1.80;1.70;;;24.90;38.70;;;;;;5032385;28;20455;-64
2021/06/01 14:37:10;;;;;;;3.07;2.10;;;24.80;39.30;;;;;;5053015;28;20540;-63
2021/06/01 14:40:07;;;;;;;2.13;1.93;;;24.80;39.60;;;;;;5053985;28;20817;-64
2021/06/01 15:08:13;;;;;;;3.70;3.40;;;24.50;41.30;;;;;;5049684;28;20538;-62
2021/06/01 15:47:42;;;;;;;2.90;2.70;;;24.40;42.10;;;;;;5052426;28;20924;-64
2021/06/01 15:49:45;;;;;;;3.53;2.80;;;24.40;43.60;;;;;;5027095;28;21264;-63
2021/06/01 15:55:29;;;;;;;4.17;3.47;;;24.30;44.80;;;;;;5052257;28;20474;-63
2021/06/01 16:12:07;;;;;;;3.87;3.50;;;23.90;50.60;;;;;;5049395;28;20593;-63
2021/06/01 16:14:46;;;;;;;5.03;4.03;;;23.80;51.10;;;;;;5056310;28;20550;-63
2021/06/01 16:22:54;;;;;;;3.40;3.10;;;23.60;50.70;;;;;;5056322;28;20474;-63
2021/06/01 16:41:38;;;;;;;3.77;3.47;;;23.30;51.60;;;;;;5056122;28;20471;-63
2021/06/01 16:42:19;;;;;;;6.77;6.17;;;23.00;53.80;;;;;;5049494;28;20479;-62
2021/06/01 17:04:14;;;;;;;6.87;6.17;;;22.70;57.30;;;;;;5049499;28;20470;-64
2021/06/01 17:06:49;;;;;;;5.37;4.87;;;22.60;57.40;;;;;;5055487;28;20470;-62
2021/06/01 17:12:06;;;;;;;5.90;5.30;;;22.70;58.00;;;;;;5055439;28;20516;-65
2021/06/01 17:14:33;;;;;;;5.07;4.57;;;22.70;58.20;;;;;;5053825;28;20459;-62
2021/06/01 17:17:03;;;;;;;5.17;4.70;;;22.60;58.20;;;;;;5054770;28;20949;-65
2021/06/01 17:30:52;;;;;;;6.83;6.17;;;22.50;59.10;;;;;;5054484;28;20552;-64
2021/06/01 17:36:10;;;;;;;5.03;4.63;;;22.40;59.30;;;;;;5054914;28;20489;-66
2021/06/01 17:38:40;;;;;;;5.77;5.27;;;22.40;59.70;;;;;;5054063;28;20471;-64